Time;durP1;ratioP1;P1;durP2;ratioP2;P2;SDS_P1;SDS_P2;PMS_P1;PMS_P2;Temp;Humidity;BMP_temperature;BMP_pressure;BME280_temperature;BME280_humidity;BME280_pressure;Samples;Min_cycle;Max_cycle;Signal;HPM_P1;HPM_P2
2023/12/25 00:00:44;;;;;;;17.70;14.57;;;8.70;99.90;;;;;;5097597;28;20041;-77
2023/12/25 00:03:10;;;;;;;27.75;17.50;;;8.70;99.90;;;;;;5093767;28;20467;-76
2023/12/25 00:05:35;;;;;;;20.60;15.07;;;8.60;99.90;;;;;;5092538;28;20024;-76
2023/12/25 00:08:01;;;;;;;25.30;16.33;;;8.70;99.90;;;;;;5091628;28;20026;-76
2023/12/25 00:10:27;;;;;;;13.23;10.82;;;8.70;99.90;;;;;;5097487;28;20020;-76
2023/12/25 00:12:52;;;;;;;15.38;10.02;;;8.70;99.90;;;;;;5093309;28;20020;-76
2023/12/25 00:15:19;;;;;;;11.13;9.35;;;8.70;99.90;;;;;;5092391;28;20638;-77
2023/12/25 00:17:44;;;;;;;12.70;10.88;;;8.70;99.90;;;;;;5091549;28;20028;-76
2023/12/25 00:20:10;;;;;;;12.40;10.30;;;8.70;99.90;;;;;;5088919;28;20105;-76
2023/12/25 00:22:36;;;;;;;11.93;9.93;;;8.70;99.90;;;;;;5095563;28;20020;-76
2023/12/25 00:25:02;;;;;;;11.90;10.10;;;8.70;99.90;;;;;;5097099;28;20057;-76
2023/12/25 00:27:27;;;;;;;10.20;9.18;;;8.70;99.90;;;;;;5096757;28;20024;-76
2023/12/25 00:29:53;;;;;;;7.82;7.03;;;8.70;99.90;;;;;;5096940;28;20503;-76
2023/12/25 00:32:19;;;;;;;8.23;7.43;;;8.60;99.90;;;;;;5096607;28;20541;-76
2023/12/25 00:34:45;;;;;;;7.85;7.13;;;8.70;99.90;;;;;;5091798;28;20082;-76
2023/12/25 00:37:11;;;;;;;6.80;5.85;;;8.70;99.90;;;;;;5090841;28;20124;-76
2023/12/25 00:39:37;;;;;;;8.10;7.22;;;8.70;99.90;;;;;;5096692;28;20022;-76
2023/12/25 00:42:02;;;;;;;7.65;6.85;;;8.70;99.90;;;;;;5096550;28;20058;-76
2023/12/25 00:44:28;;;;;;;6.85;6.15;;;8.70;99.90;;;;;;5095766;28;20052;-77
2023/12/25 00:46:54;;;;;;;8.02;7.22;;;8.70;99.90;;;;;;5096464;28;20043;-76
2023/12/25 00:49:20;;;;;;;6.47;5.88;;;8.70;99.90;;;;;;5096287;28;20020;-76
2023/12/25 00:51:45;;;;;;;6.78;6.07;;;8.60;99.90;;;;;;5086812;28;20036;-76
2023/12/25 00:54:11;;;;;;;15.70;10.20;;;8.60;99.90;;;;;;5089957;28;20043;-75
2023/12/25 00:56:37;;;;;;;7.20;6.50;;;8.60;99.90;;;;;;5111715;28;20043;-76
2023/12/25 00:59:02;;;;;;;7.00;6.30;;;8.60;99.90;;;;;;5115991;28;20050;-76
2023/12/25 01:01:28;;;;;;;6.45;5.82;;;8.60;99.90;;;;;;5115424;28;20030;-75
2023/12/25 01:03:54;;;;;;;6.65;5.93;;;8.60;99.90;;;;;;5114846;28;20030;-76
2023/12/25 01:06:19;;;;;;;5.93;5.32;;;8.50;99.90;;;;;;5114297;28;20020;-76
2023/12/25 01:08:45;;;;;;;478.95;232.25;;;8.50;99.90;;;;;;5116305;28;20027;-76
2023/12/25 01:11:11;;;;;;;338.52;154.35;;;8.60;99.90;;;;;;5111558;28;20051;-76
2023/12/25 01:13:37;;;;;;;285.27;128.30;;;8.50;99.90;;;;;;5116214;28;20043;-75
2023/12/25 01:16:03;;;;;;;47.53;24.17;;;8.50;99.90;;;;;;5114360;28;20020;-76
2023/12/25 01:18:29;;;;;;;16.25;10.95;;;8.50;99.90;;;;;;5111499;28;20035;-75
2023/12/25 01:20:54;;;;;;;43.72;22.40;;;8.50;99.90;;;;;;5115745;28;20399;-77
2023/12/25 01:23:20;;;;;;;54.33;29.17;;;8.50;99.90;;;;;;5116022;28;20024;-76
2023/12/25 01:25:45;;;;;;;48.17;27.50;;;8.50;99.90;;;;;;5115899;28;20103;-76
2023/12/25 01:28:11;;;;;;;15.20;9.85;;;8.50;99.90;;;;;;5111436;28;20024;-75
2023/12/25 01:30:37;;;;;;;6.30;5.50;;;8.50;99.90;;;;;;5108560;28;20038;-76
2023/12/25 01:33:03;;;;;;;5.70;5.00;;;8.50;99.90;;;;;;5116151;28;20081;-75
2023/12/25 01:35:28;;;;;;;4.85;4.28;;;8.50;99.90;;;;;;5114387;28;20080;-75
2023/12/25 01:37:54;;;;;;;5.53;5.03;;;8.50;99.90;;;;;;5116382;28;20049;-75
2023/12/25 01:40:21;;;;;;;5.93;5.32;;;8.50;99.90;;;;;;5116128;28;20030;-77
2023/12/25 01:42:47;;;;;;;15.63;11.18;;;8.60;99.90;;;;;;5116197;28;20027;-76
2023/12/25 01:45:13;;;;;;;65.82;40.40;;;8.50;99.90;;;;;;5114585;28;20028;-76
2023/12/25 01:47:39;;;;;;;23.92;16.58;;;8.50;99.90;;;;;;5116033;28;20041;-76
2023/12/25 01:50:06;;;;;;;12.35;9.85;;;8.60;99.90;;;;;;5115748;28;20020;-76
2023/12/25 01:52:32;;;;;;;6.68;5.32;;;8.60;99.90;;;;;;5115898;28;20468;-75
2023/12/25 01:55:01;;;;;;;6.07;5.47;;;8.60;99.90;;;;;;5128257;27;20047;-75
2023/12/25 01:57:31;;;;;;;6.15;5.50;;;8.50;99.90;;;;;;5136433;27;20026;-75
2023/12/25 01:59:56;;;;;;;5.43;4.93;;;8.60;99.90;;;;;;5117523;28;20102;-75
2023/12/25 02:02:23;;;;;;;5.80;5.20;;;8.60;99.90;;;;;;5136521;28;20054;-76
2023/12/25 02:04:48;;;;;;;5.07;4.57;;;8.50;99.90;;;;;;5136089;28;20027;-76
2023/12/25 02:07:15;;;;;;;5.35;4.85;;;8.50;99.90;;;;;;5136216;28;20079;-75
2023/12/25 02:09:41;;;;;;;5.20;4.70;;;8.50;99.90;;;;;;5136115;28;20111;-76
2023/12/25 02:12:06;;;;;;;5.20;4.50;;;8.50;99.90;;;;;;5114530;28;20487;-76
2023/12/25 02:14:32;;;;;;;5.38;4.80;;;8.50;99.90;;;;;;5130556;28;20030;-75
2023/12/25 02:16:59;;;;;;;5.30;4.80;;;8.50;99.90;;;;;;5136424;28;20015;-75
2023/12/25 02:19:34;;;;;;;7.47;6.28;;;8.50;99.90;;;;;;5129115;28;20028;-75
2023/12/25 02:22:00;;;;;;;4.93;4.30;;;8.50;99.90;;;;;;5136204;28;20025;-76
2023/12/25 02:24:30;;;;;;;5.80;4.90;;;8.40;99.90;;;;;;5117567;28;20031;-76
2023/12/25 02:26:56;;;;;;;128.15;71.82;;;8.40;99.90;;;;;;5136271;28;20025;-76
2023/12/25 02:29:22;;;;;;;153.27;89.05;;;8.40;99.90;;;;;;5136042;28;20553;-76
2023/12/25 02:31:48;;;;;;;88.43;55.55;;;8.40;99.90;;;;;;5135987;28;20031;-76
2023/12/25 02:34:14;;;;;;;20.75;12.40;;;8.40;99.90;;;;;;5117198;28;20031;-75
2023/12/25 02:36:40;;;;;;;7.47;6.15;;;8.40;99.90;;;;;;5114172;28;20066;-76
2023/12/25 02:39:06;;;;;;;5.97;5.38;;;8.40;99.90;;;;;;5114299;28;20031;-75
2023/12/25 02:41:32;;;;;;;5.85;5.10;;;8.40;99.90;;;;;;5136200;28;20031;-75
2023/12/25 02:43:57;;;;;;;5.32;4.82;;;8.40;99.90;;;;;;5117339;28;20052;-76
2023/12/25 02:46:23;;;;;;;6.70;5.25;;;8.40;99.90;;;;;;5136037;28;20160;-75
2023/12/25 02:48:49;;;;;;;5.93;5.20;;;8.50;99.90;;;;;;5135842;28;20030;-75
2023/12/25 02:51:15;;;;;;;5.97;5.47;;;8.40;99.90;;;;;;5135792;28;20081;-76
2023/12/25 02:53:40;;;;;;;5.88;4.50;;;8.40;99.90;;;;;;5135338;28;20015;-76
2023/12/25 02:56:06;;;;;;;4.85;4.35;;;8.40;99.90;;;;;;5135956;28;20056;-76
2023/12/25 02:58:32;;;;;;;12.23;5.20;;;8.40;99.90;;;;;;5135740;28;20019;-76
2023/12/25 03:00:57;;;;;;;5.93;5.32;;;8.40;99.90;;;;;;5135914;28;20481;-76
2023/12/25 03:03:23;;;;;;;6.65;6.05;;;8.40;99.90;;;;;;5135612;28;20035;-75
2023/12/25 03:05:49;;;;;;;7.55;5.78;;;8.40;99.90;;;;;;5113627;28;20051;-76
2023/12/25 03:08:14;;;;;;;5.85;5.25;;;8.40;99.90;;;;;;5134851;27;20493;-76
2023/12/25 03:10:41;;;;;;;5.53;5.03;;;8.40;99.90;;;;;;5139500;27;20038;-76
2023/12/25 03:13:07;;;;;;;5.53;5.03;;;8.40;99.90;;;;;;5139138;27;20015;-76
2023/12/25 03:15:34;;;;;;;5.80;5.20;;;8.40;99.90;;;;;;5139368;27;20079;-76
2023/12/25 03:18:00;;;;;;;5.57;5.07;;;8.40;99.90;;;;;;5139261;27;20019;-75
2023/12/25 03:20:25;;;;;;;5.85;5.32;;;8.40;99.90;;;;;;5132122;27;20023;-76
2023/12/25 03:22:51;;;;;;;6.03;5.45;;;8.40;99.90;;;;;;5120360;27;20033;-76
2023/12/25 03:25:17;;;;;;;6.28;5.65;;;8.40;99.90;;;;;;5139337;27;20023;-76
2023/12/25 03:27:42;;;;;;;5.60;5.10;;;8.40;99.90;;;;;;5118841;27;20015;-75
2023/12/25 03:30:08;;;;;;;5.90;5.30;;;8.30;99.90;;;;;;5139216;27;20031;-76
2023/12/25 03:32:34;;;;;;;5.00;4.50;;;8.30;99.90;;;;;;5138941;27;20023;-76
2023/12/25 03:35:00;;;;;;;5.50;4.95;;;8.40;99.90;;;;;;5116895;28;20023;-76
2023/12/25 03:37:26;;;;;;;4.82;4.43;;;8.40;99.90;;;;;;5135016;27;20057;-75
2023/12/25 03:39:52;;;;;;;5.30;4.50;;;8.30;99.90;;;;;;5139090;27;20034;-75
2023/12/25 03:42:18;;;;;;;6.07;5.47;;;8.30;99.90;;;;;;5138739;27;20090;-75
2023/12/25 03:44:43;;;;;;;7.57;6.32;;;8.30;99.90;;;;;;5138950;27;20031;-76
2023/12/25 03:47:11;;;;;;;7.82;6.45;;;8.30;99.90;;;;;;5118493;27;20038;-76
2023/12/25 03:49:37;;;;;;;5.93;5.43;;;8.30;99.90;;;;;;5138509;27;20059;-76
2023/12/25 03:52:02;;;;;;;5.07;4.63;;;8.20;99.90;;;;;;5138528;27;20072;-76
2023/12/25 03:54:29;;;;;;;5.78;5.18;;;8.20;99.90;;;;;;5138777;27;20453;-76
2023/12/25 03:56:54;;;;;;;6.47;5.68;;;8.10;99.90;;;;;;5119686;27;20444;-75
2023/12/25 03:59:20;;;;;;;80.05;48.72;;;8.10;99.90;;;;;;5138526;27;20023;-75
2023/12/25 04:01:45;;;;;;;8.23;6.32;;;8.10;99.90;;;;;;5137911;27;20027;-75
2023/12/25 04:04:11;;;;;;;8.88;4.68;;;8.10;99.90;;;;;;5138309;27;20041;-76
2023/12/25 04:06:37;;;;;;;5.80;5.20;;;8.10;99.90;;;;;;5137143;27;20023;-75
2023/12/25 04:09:04;;;;;;;10.10;8.07;;;8.00;99.90;;;;;;5115962;28;20179;-75
2023/12/25 04:11:30;;;;;;;5.05;4.55;;;8.00;99.90;;;;;;5115966;27;20023;-75
2023/12/25 04:13:56;;;;;;;5.43;4.32;;;7.90;99.90;;;;;;5116307;28;20031;-75
2023/12/25 04:16:23;;;;;;;6.85;4.55;;;7.90;99.90;;;;;;5116446;27;20024;-75
2023/12/25 04:18:49;;;;;;;6.28;5.35;;;7.90;99.90;;;;;;5116328;27;20027;-75
2023/12/25 04:21:25;;;;;;;5.53;4.95;;;7.90;99.90;;;;;;5134532;27;20019;-74
2023/12/25 04:23:51;;;;;;;143.65;66.95;;;7.80;99.90;;;;;;5119473;27;20503;-75
2023/12/25 04:26:18;;;;;;;6.68;5.78;;;7.80;99.90;;;;;;5137759;27;20448;-75
2023/12/25 04:28:44;;;;;;;6.00;5.40;;;7.80;99.90;;;;;;5119511;27;20059;-74
2023/12/25 04:31:10;;;;;;;6.65;5.65;;;7.70;99.90;;;;;;5137670;27;20487;-76
2023/12/25 04:33:36;;;;;;;7.80;6.15;;;7.70;99.90;;;;;;5119333;27;20035;-75
2023/12/25 04:36:03;;;;;;;9.25;7.50;;;7.80;99.90;;;;;;5137397;27;20015;-75
2023/12/25 04:38:28;;;;;;;5.55;5.00;;;7.80;99.90;;;;;;5137823;27;20045;-75
2023/12/25 04:40:54;;;;;;;5.80;5.20;;;7.80;99.90;;;;;;5119251;27;20094;-75
2023/12/25 04:43:20;;;;;;;6.82;6.20;;;7.70;99.90;;;;;;5137524;27;20030;-75
2023/12/25 04:45:45;;;;;;;5.57;5.03;;;7.60;99.90;;;;;;5137532;27;20483;-75
2023/12/25 04:48:11;;;;;;;5.47;4.95;;;7.60;99.90;;;;;;5119240;27;20483;-75
2023/12/25 04:50:38;;;;;;;7.22;6.53;;;7.60;99.90;;;;;;5118558;27;20030;-76
2023/12/25 04:53:04;;;;;;;6.38;5.35;;;7.50;99.90;;;;;;5137606;27;20084;-75
2023/12/25 04:55:30;;;;;;;5.97;5.43;;;7.50;99.90;;;;;;5137033;27;20043;-75
2023/12/25 04:57:55;;;;;;;5.32;4.82;;;7.50;99.90;;;;;;5115544;28;20030;-75
2023/12/25 05:00:22;;;;;;;5.65;5.10;;;7.50;99.90;;;;;;5114436;27;20027;-75
2023/12/25 05:02:47;;;;;;;5.28;4.78;;;7.50;99.90;;;;;;5129035;27;20023;-75
2023/12/25 05:05:13;;;;;;;5.18;4.68;;;7.40;99.90;;;;;;5116571;27;20062;-75
2023/12/25 05:07:39;;;;;;;5.22;4.72;;;7.40;99.90;;;;;;5136424;27;20088;-75
2023/12/25 05:10:05;;;;;;;5.63;4.97;;;7.40;99.90;;;;;;5117829;27;20043;-75
2023/12/25 05:12:31;;;;;;;6.03;4.63;;;7.40;99.90;;;;;;5115181;28;20800;-75
2023/12/25 05:14:56;;;;;;;5.10;4.60;;;7.30;99.90;;;;;;5135159;27;20398;-75
2023/12/25 05:17:22;;;;;;;5.60;5.10;;;7.30;99.90;;;;;;5137105;27;20379;-75
2023/12/25 05:19:48;;;;;;;5.72;4.85;;;7.30;99.90;;;;;;5129884;27;20012;-75
2023/12/25 05:22:14;;;;;;;5.55;5.00;;;7.20;99.90;;;;;;5115036;28;20593;-75
2023/12/25 05:24:40;;;;;;;6.18;5.57;;;7.30;99.90;;;;;;5135092;27;20019;-75
2023/12/25 05:27:06;;;;;;;6.10;5.57;;;7.30;99.90;;;;;;5115288;28;20031;-75
2023/12/25 05:29:31;;;;;;;6.55;5.95;;;7.20;99.90;;;;;;5116190;27;20113;-75
2023/12/25 05:31:58;;;;;;;5.97;5.40;;;7.20;99.90;;;;;;5136760;27;20023;-75
2023/12/25 05:34:23;;;;;;;6.18;5.57;;;7.20;99.90;;;;;;5114487;28;20027;-75
2023/12/25 05:36:49;;;;;;;6.38;5.25;;;7.20;99.90;;;;;;5128349;27;20027;-75
2023/12/25 05:39:15;;;;;;;5.53;5.03;;;7.20;99.90;;;;;;5114533;28;20548;-74
2023/12/25 05:41:41;;;;;;;6.28;5.68;;;7.20;99.90;;;;;;5106090;28;20019;-75
2023/12/25 05:44:07;;;;;;;6.50;5.68;;;7.20;99.90;;;;;;5134567;27;20027;-75
2023/12/25 05:46:32;;;;;;;6.57;5.75;;;7.10;99.90;;;;;;5114427;28;20031;-75
2023/12/25 05:48:58;;;;;;;6.45;5.85;;;7.10;99.90;;;;;;5112361;28;20015;-75
2023/12/25 05:51:24;;;;;;;6.50;5.90;;;7.10;99.90;;;;;;5127680;27;20402;-75
2023/12/25 05:53:49;;;;;;;6.35;5.45;;;7.10;99.90;;;;;;5136112;27;20114;-75
2023/12/25 05:56:15;;;;;;;6.25;5.63;;;7.10;99.90;;;;;;5136547;27;20023;-75
2023/12/25 05:58:41;;;;;;;6.90;6.20;;;7.20;99.90;;;;;;5136306;27;20080;-74
2023/12/25 06:01:08;;;;;;;6.13;5.53;;;7.20;99.90;;;;;;5114581;28;20835;-75
2023/12/25 06:03:35;;;;;;;7.70;6.93;;;7.20;99.90;;;;;;5134340;28;20394;-74
2023/12/25 06:06:01;;;;;;;9.43;6.85;;;7.20;99.90;;;;;;5117688;28;20084;-75
2023/12/25 06:08:26;;;;;;;8.13;7.32;;;7.20;99.90;;;;;;5114204;28;20024;-75
2023/12/25 06:10:52;;;;;;;7.43;6.70;;;7.20;99.90;;;;;;5105586;28;20038;-75
2023/12/25 06:13:18;;;;;;;10.00;6.63;;;7.30;99.90;;;;;;5133624;28;20019;-75
2023/12/25 06:15:43;;;;;;;8.07;7.18;;;7.30;99.90;;;;;;5136326;28;20030;-75
2023/12/25 06:18:09;;;;;;;7.68;6.88;;;7.30;99.90;;;;;;5136105;28;20068;-75
2023/12/25 06:20:34;;;;;;;7.90;7.20;;;7.30;99.90;;;;;;5107143;28;20032;-75
2023/12/25 06:23:00;;;;;;;10.23;7.50;;;7.30;99.90;;;;;;5133570;28;20027;-75
2023/12/25 06:25:26;;;;;;;8.00;6.47;;;7.30;99.90;;;;;;5136164;28;20031;-74
2023/12/25 06:27:52;;;;;;;7.57;6.88;;;7.30;99.90;;;;;;5113982;28;20023;-75
2023/12/25 06:30:18;;;;;;;7.00;6.30;;;7.30;99.90;;;;;;5126783;28;20031;-75
2023/12/25 06:32:43;;;;;;;7.88;7.05;;;7.30;99.90;;;;;;5136121;28;20529;-75
2023/12/25 06:35:09;;;;;;;7.20;6.50;;;7.20;99.90;;;;;;5135861;28;20065;-75
2023/12/25 06:37:35;;;;;;;7.40;6.70;;;7.20;99.90;;;;;;5117229;28;20391;-75
2023/12/25 06:40:01;;;;;;;7.68;6.95;;;7.20;99.90;;;;;;5117732;28;20119;-75
2023/12/25 06:42:27;;;;;;;8.93;7.13;;;7.20;99.90;;;;;;5119417;27;20023;-75
2023/12/25 06:44:53;;;;;;;7.95;7.15;;;7.20;99.90;;;;;;5121608;27;20498;-75
2023/12/25 06:47:18;;;;;;;9.18;8.27;;;7.20;99.90;;;;;;5139782;27;20027;-75
2023/12/25 06:49:44;;;;;;;7.57;6.88;;;7.10;99.90;;;;;;5139576;27;20479;-75
2023/12/25 06:52:10;;;;;;;8.05;7.03;;;7.20;99.90;;;;;;5139633;27;20030;-75
2023/12/25 06:54:35;;;;;;;8.65;7.95;;;7.20;99.90;;;;;;5139546;27;20137;-75
2023/12/25 06:57:02;;;;;;;8.73;7.55;;;7.20;99.90;;;;;;5139469;27;20023;-75
2023/12/25 06:59:27;;;;;;;8.52;7.80;;;7.20;99.90;;;;;;5139866;27;20360;-75
2023/12/25 07:01:54;;;;;;;8.68;7.88;;;7.20;99.90;;;;;;5139470;27;20026;-75
2023/12/25 07:04:20;;;;;;;9.38;8.43;;;7.20;99.90;;;;;;5139377;27;20043;-75
2023/12/25 07:06:45;;;;;;;7.70;6.95;;;7.20;99.90;;;;;;5135620;27;20415;-75
2023/12/25 07:09:14;;;;;;;8.07;7.32;;;7.20;99.90;;;;;;5129626;27;20027;-75
2023/12/25 07:11:41;;;;;;;6.90;6.30;;;7.10;99.90;;;;;;5139270;27;20164;-75
2023/12/25 07:14:08;;;;;;;7.25;6.35;;;7.00;99.90;;;;;;5117523;28;20444;-76
2023/12/25 07:16:34;;;;;;;7.22;6.53;;;7.00;99.90;;;;;;5118947;27;20143;-75
2023/12/25 07:19:00;;;;;;;8.05;7.25;;;7.00;99.90;;;;;;5134504;27;20183;-75
2023/12/25 07:21:25;;;;;;;7.90;6.72;;;6.90;99.90;;;;;;5137569;27;20015;-75
2023/12/25 07:23:52;;;;;;;7.78;7.07;;;6.90;99.90;;;;;;5117393;28;20073;-75
2023/12/25 07:26:18;;;;;;;8.13;7.38;;;6.90;99.90;;;;;;5137691;27;20455;-75
2023/12/25 07:28:45;;;;;;;10.25;8.05;;;6.80;99.90;;;;;;5139384;27;20027;-75
2023/12/25 07:31:11;;;;;;;8.68;7.80;;;6.70;99.90;;;;;;5120331;27;20076;-75
2023/12/25 07:33:36;;;;;;;8.25;7.45;;;6.70;99.90;;;;;;5138997;27;20027;-75
2023/12/25 07:36:04;;;;;;;8.63;7.72;;;6.80;99.90;;;;;;5116757;28;20023;-75
2023/12/25 07:38:30;;;;;;;9.02;7.95;;;6.80;99.90;;;;;;5109018;28;20012;-75
2023/12/25 07:40:57;;;;;;;9.05;8.07;;;6.80;99.90;;;;;;5137466;27;20020;-75
2023/12/25 07:43:24;;;;;;;8.55;7.75;;;6.80;99.90;;;;;;5116910;28;20024;-75
2023/12/25 07:45:50;;;;;;;8.75;7.95;;;6.80;99.90;;;;;;5138246;27;20023;-75
2023/12/25 07:48:16;;;;;;;13.10;8.15;;;6.80;99.90;;;;;;5116895;28;20066;-75
2023/12/25 07:50:42;;;;;;;8.55;7.65;;;6.80;99.90;;;;;;5137487;27;20019;-75
2023/12/25 07:53:08;;;;;;;8.55;7.70;;;6.80;99.90;;;;;;5116064;28;20032;-75
2023/12/25 07:55:36;;;;;;;8.80;7.85;;;6.80;99.90;;;;;;5116242;28;20059;-75
2023/12/25 07:58:02;;;;;;;9.38;8.45;;;6.80;99.90;;;;;;5131513;27;20431;-75
2023/12/25 08:00:28;;;;;;;11.85;8.75;;;6.80;99.90;;;;;;5138392;27;20073;-75
2023/12/25 08:02:55;;;;;;;10.52;8.70;;;6.90;99.90;;;;;;5116519;28;20562;-75
2023/12/25 08:05:20;;;;;;;9.48;8.57;;;6.90;99.90;;;;;;5137772;27;20035;-75
2023/12/25 08:07:46;;;;;;;8.55;7.75;;;6.90;99.90;;;;;;5138335;27;20399;-75
2023/12/25 08:10:12;;;;;;;9.23;8.32;;;7.00;99.90;;;;;;5138037;27;20019;-75
2023/12/25 08:12:42;;;;;;;9.80;8.80;;;7.10;99.90;;;;;;5138414;27;20402;-75
2023/12/25 08:15:10;;;;;;;9.40;8.45;;;7.10;99.90;;;;;;5137826;27;20019;-75
2023/12/25 08:17:35;;;;;;;12.00;8.15;;;7.20;99.90;;;;;;5116328;28;20028;-77
2023/12/25 08:20:01;;;;;;;8.95;8.07;;;7.20;99.90;;;;;;5133858;27;20027;-75
2023/12/25 08:22:27;;;;;;;10.55;9.38;;;7.30;99.90;;;;;;5138014;27;20050;-75
2023/12/25 08:24:53;;;;;;;9.20;8.18;;;7.30;99.90;;;;;;5119708;27;20034;-75
2023/12/25 08:27:19;;;;;;;11.05;9.05;;;7.30;99.90;;;;;;5105385;28;20028;-74
2023/12/25 08:29:44;;;;;;;11.32;8.88;;;7.30;99.90;;;;;;5102406;28;20118;-74
2023/12/25 08:32:12;;;;;;;8.60;7.75;;;7.40;99.90;;;;;;5126041;27;20110;-74
2023/12/25 08:34:38;;;;;;;8.88;8.00;;;7.40;99.90;;;;;;5105537;28;20043;-74
2023/12/25 08:37:04;;;;;;;10.07;9.00;;;7.50;99.90;;;;;;5126357;27;20078;-75
2023/12/25 08:39:30;;;;;;;9.18;8.27;;;7.50;99.90;;;;;;5132557;27;20514;-75
2023/12/25 08:42:00;;;;;;;8.65;7.85;;;7.50;99.90;;;;;;5131945;27;20095;-75
2023/12/25 08:44:26;;;;;;;8.65;7.85;;;7.60;99.90;;;;;;5110582;27;20065;-76
2023/12/25 08:46:52;;;;;;;9.35;8.05;;;7.50;99.90;;;;;;5129036;27;20035;-75
2023/12/25 08:49:18;;;;;;;9.45;8.57;;;7.50;99.90;;;;;;5110266;27;20029;-75
2023/12/25 08:51:43;;;;;;;9.38;8.48;;;7.60;99.90;;;;;;5118035;27;20049;-81
2023/12/25 08:54:09;;;;;;;9.10;8.20;;;7.60;99.90;;;;;;5137018;27;20094;-82
2023/12/25 08:56:35;;;;;;;8.82;8.02;;;7.80;99.90;;;;;;5136871;27;20460;-82
2023/12/25 08:59:00;;;;;;;8.80;8.00;;;7.70;99.90;;;;;;5137423;27;20042;-81
2023/12/25 09:01:28;;;;;;;8.57;7.78;;;7.80;99.90;;;;;;5137203;27;20070;-78
2023/12/25 09:03:54;;;;;;;8.65;7.85;;;7.80;99.90;;;;;;5129702;27;20035;-81
2023/12/25 09:06:19;;;;;;;17.17;11.25;;;7.90;99.90;;;;;;5125425;27;20035;-81
2023/12/25 09:08:46;;;;;;;8.18;7.22;;;7.90;99.90;;;;;;5134544;27;20034;-81
2023/12/25 09:11:12;;;;;;;8.70;7.78;;;8.10;99.90;;;;;;5137755;27;20015;-82
2023/12/25 09:13:37;;;;;;;9.20;8.32;;;8.10;99.90;;;;;;5137351;27;20399;-82
2023/12/25 09:16:03;;;;;;;8.07;7.28;;;8.20;99.90;;;;;;5118492;27;20085;-82
2023/12/25 09:18:29;;;;;;;8.68;7.88;;;8.30;99.90;;;;;;5136967;27;20019;-81
2023/12/25 09:20:57;;;;;;;9.40;8.32;;;8.20;99.90;;;;;;5134315;27;20523;-81
2023/12/25 09:23:23;;;;;;;8.30;7.50;;;8.30;99.90;;;;;;5106098;28;20023;-81
2023/12/25 09:25:49;;;;;;;8.32;7.22;;;8.30;99.90;;;;;;5109385;27;20023;-81
2023/12/25 09:28:15;;;;;;;8.82;7.93;;;8.40;99.90;;;;;;5107232;27;20107;-81
2023/12/25 09:30:40;;;;;;;9.35;7.68;;;8.50;99.90;;;;;;5125567;27;20024;-80
2023/12/25 09:33:07;;;;;;;8.70;7.88;;;8.40;99.90;;;;;;5118103;28;20071;-79
2023/12/25 09:35:32;;;;;;;8.57;7.57;;;8.30;99.90;;;;;;5108063;27;20040;-80
2023/12/25 09:37:58;;;;;;;9.32;7.63;;;8.40;99.90;;;;;;5131734;27;20019;-80
2023/12/25 09:40:24;;;;;;;8.68;7.25;;;8.50;99.90;;;;;;5126287;27;20105;-80
2023/12/25 09:42:50;;;;;;;8.73;7.82;;;8.60;99.90;;;;;;5131343;27;20067;-80
2023/12/25 09:45:17;;;;;;;8.68;7.80;;;8.60;99.90;;;;;;5136423;27;20024;-79
2023/12/25 09:47:43;;;;;;;8.40;7.60;;;8.70;99.90;;;;;;5136900;27;20027;-80
2023/12/25 09:50:11;;;;;;;8.20;7.32;;;8.60;99.90;;;;;;5115004;28;20115;-78
2023/12/25 09:52:37;;;;;;;8.60;7.80;;;8.50;99.90;;;;;;5136592;27;20449;-79
2023/12/25 09:55:02;;;;;;;8.18;7.38;;;8.50;99.90;;;;;;5117405;27;20096;-74
2023/12/25 09:57:29;;;;;;;9.60;8.70;;;8.50;99.90;;;;;;5117817;28;20462;-74
2023/12/25 09:59:56;;;;;;;9.25;8.27;;;8.50;99.90;;;;;;5135966;27;20050;-73
2023/12/25 10:02:23;;;;;;;8.15;7.35;;;8.50;99.90;;;;;;5136320;28;20026;-73
2023/12/25 10:04:49;;;;;;;8.40;7.60;;;8.50;99.90;;;;;;5135691;28;20114;-71
2023/12/25 10:07:20;;;;;;;13.07;9.55;;;8.60;99.90;;;;;;5136281;28;20023;-74
2023/12/25 10:09:47;;;;;;;;;;;8.80;99.90;;;;;;5134729;28;20468;-74
2023/12/25 10:12:13;;;;;;;9.45;7.90;;;8.80;99.90;;;;;;5135090;28;19907;-74
2023/12/25 10:14:38;;;;;;;10.85;9.35;;;8.90;99.90;;;;;;5135720;28;20418;-74
2023/12/25 10:17:04;;;;;;;8.82;7.97;;;8.90;99.90;;;;;;5121006;27;20035;-74
2023/12/25 10:19:30;;;;;;;11.20;8.15;;;8.90;99.90;;;;;;5136246;27;20019;-74
2023/12/25 10:21:56;;;;;;;9.75;8.73;;;9.00;99.90;;;;;;5121714;27;20031;-79
2023/12/25 10:24:29;;;;;;;9.05;8.15;;;9.10;99.90;;;;;;5121604;27;20048;-79
2023/12/25 10:26:57;;;;;;;8.75;7.85;;;9.10;99.90;;;;;;5121891;27;20399;-84
2023/12/25 10:29:35;;;;;;;9.25;7.72;;;9.10;99.90;;;;;;5121991;27;20072;-86
2023/12/25 10:32:17;;;;;;;9.20;8.30;;;9.20;99.90;;;;;;5121780;27;20057;-81
2023/12/25 10:34:43;;;;;;;46.15;25.17;;;9.20;99.90;;;;;;5139205;27;20114;-77
2023/12/25 10:37:09;;;;;;;69.20;31.45;;;9.20;99.90;;;;;;5140098;27;20061;-78
2023/12/25 10:39:35;;;;;;;11.13;9.55;;;9.40;99.90;;;;;;5139844;27;20110;-76
2023/12/25 10:42:02;;;;;;;19.60;16.77;;;9.50;99.90;;;;;;5118042;28;20094;-81
2023/12/25 10:44:29;;;;;;;8.57;7.75;;;9.60;99.90;;;;;;5131173;27;20030;-83
2023/12/25 10:46:57;;;;;;;8.73;7.35;;;9.40;99.90;;;;;;5133751;27;20438;-83
2023/12/25 10:49:24;;;;;;;86.20;58.85;;;9.30;99.90;;;;;;5139555;27;20210;-78
2023/12/25 10:51:51;;;;;;;10.25;8.05;;;9.30;99.90;;;;;;5111292;27;20114;-78
2023/12/25 10:54:19;;;;;;;8.65;7.50;;;9.40;99.90;;;;;;5120873;27;20043;-77
2023/12/25 10:56:48;;;;;;;8.38;7.50;;;9.40;99.90;;;;;;5139449;27;20043;-77
2023/12/25 10:59:24;;;;;;;8.80;7.65;;;9.50;99.90;;;;;;5139511;27;20057;-77
2023/12/25 11:01:52;;;;;;;8.57;7.35;;;9.50;99.90;;;;;;5139373;27;20091;-78
2023/12/25 11:04:20;;;;;;;9.00;8.10;;;9.50;99.90;;;;;;5139168;27;20133;-77
2023/12/25 11:06:47;;;;;;;17.80;12.95;;;9.60;99.90;;;;;;5138987;27;20478;-78
2023/12/25 11:09:17;;;;;;;9.52;8.60;;;9.50;99.90;;;;;;5120680;27;20135;-78
2023/12/25 11:11:45;;;;;;;8.82;7.85;;;9.40;99.90;;;;;;5120718;27;20023;-79
2023/12/25 11:14:11;;;;;;;9.55;8.35;;;9.40;99.90;;;;;;5139403;27;20023;-80
2023/12/25 11:16:37;;;;;;;10.60;9.48;;;9.50;99.90;;;;;;5120307;27;20016;-79
2023/12/25 11:19:04;;;;;;;10.93;8.65;;;9.40;99.90;;;;;;5124715;27;20016;-77
2023/12/25 11:21:32;;;;;;;53.28;24.27;;;9.30;99.90;;;;;;5114456;27;20039;-77
2023/12/25 11:23:59;;;;;;;33.00;23.48;;;9.20;99.90;;;;;;5115627;27;20379;-78
2023/12/25 11:26:27;;;;;;;18.42;14.40;;;9.10;99.90;;;;;;5134020;27;20494;-76
2023/12/25 11:28:58;;;;;;;117.82;69.07;;;9.20;99.90;;;;;;5132399;27;20023;-77
2023/12/25 11:31:27;;;;;;;26.15;17.45;;;9.40;99.90;;;;;;5132720;27;20023;-75
2023/12/25 11:33:53;;;;;;;133.48;68.70;;;9.70;99.90;;;;;;5132117;27;20123;-76
2023/12/25 11:36:19;;;;;;;19.15;12.60;;;9.80;99.90;;;;;;5132659;27;20052;-75
2023/12/25 11:39:03;;;;;;;11.32;9.00;;;9.80;99.90;;;;;;5132791;27;20031;-75
2023/12/25 11:41:30;;;;;;;17.95;13.23;;;9.70;99.90;;;;;;5132964;27;20027;-76
2023/12/25 11:44:05;;;;;;;9.60;8.60;;;9.60;99.90;;;;;;5132586;27;20027;-75
2023/12/25 11:46:35;;;;;;;10.52;9.30;;;9.50;99.90;;;;;;5133118;27;20035;-76
2023/12/25 11:49:00;;;;;;;11.30;10.15;;;9.40;99.90;;;;;;5132625;27;20031;-76
2023/12/25 11:51:29;;;;;;;10.25;9.25;;;9.30;99.90;;;;;;5103607;27;20466;-75
2023/12/25 11:54:02;;;;;;;9.95;8.90;;;9.20;99.90;;;;;;5126096;27;20039;-76
2023/12/25 11:56:28;;;;;;;11.95;10.63;;;9.10;99.90;;;;;;5133703;27;20021;-76
2023/12/25 11:58:54;;;;;;;73.07;43.45;;;9.10;99.90;;;;;;5115427;27;20114;-78
2023/12/25 12:01:22;;;;;;;174.00;97.25;;;9.10;99.90;;;;;;5114830;27;20122;-77
2023/12/25 12:03:50;;;;;;;31.98;23.55;;;9.00;99.90;;;;;;5125602;27;20110;-76
2023/12/25 12:06:16;;;;;;;14.27;11.75;;;8.90;99.90;;;;;;5122018;27;20023;-77
2023/12/25 12:08:43;;;;;;;30.17;20.63;;;8.90;99.90;;;;;;5133341;27;20537;-77
2023/12/25 12:11:10;;;;;;;28.48;18.52;;;8.90;99.90;;;;;;5133783;27;20075;-77
2023/12/25 12:13:36;;;;;;;26.20;17.25;;;8.90;99.90;;;;;;5110918;28;20055;-77
2023/12/25 12:16:03;;;;;;;10.90;9.55;;;8.80;99.90;;;;;;5104785;28;20031;-77
2023/12/25 12:18:29;;;;;;;16.73;12.88;;;8.80;99.90;;;;;;5114706;27;20015;-75
2023/12/25 12:20:55;;;;;;;16.13;11.50;;;8.80;99.90;;;;;;5126707;27;20019;-75
2023/12/25 12:23:21;;;;;;;13.05;10.98;;;8.80;99.90;;;;;;5098657;27;20020;-74
2023/12/25 12:25:47;;;;;;;13.15;11.30;;;8.80;99.90;;;;;;5111408;28;20099;-75
2023/12/25 12:28:16;;;;;;;12.38;10.93;;;8.90;99.90;;;;;;5110752;27;20940;-74
2023/12/25 12:30:42;;;;;;;12.00;10.75;;;8.90;99.90;;;;;;5133422;27;20489;-77
2023/12/25 12:33:10;;;;;;;22.83;17.45;;;8.90;99.90;;;;;;5132811;27;20037;-77
2023/12/25 12:35:36;;;;;;;13.77;11.38;;;8.90;99.90;;;;;;5132923;27;20051;-78
2023/12/25 12:38:04;;;;;;;16.60;12.18;;;8.90;99.90;;;;;;5133108;27;20102;-77
2023/12/25 12:40:31;;;;;;;297.02;134.23;;;8.90;99.90;;;;;;5112324;27;20038;-77
2023/12/25 12:42:56;;;;;;;197.55;91.90;;;9.00;99.90;;;;;;5133019;27;20028;-77
2023/12/25 12:45:22;;;;;;;65.97;36.60;;;9.00;99.90;;;;;;5133179;27;20083;-75
2023/12/25 12:47:52;;;;;;;13.77;11.20;;;9.00;99.90;;;;;;5133058;27;20019;-73